sensor_id;sensor_type;location;lat;lon;timestamp;temperature;humidity
11152;DHT22;5630;49.342;10.802;2024-02-26T00:00:10;4.60;99.90
11152;DHT22;5630;49.342;10.802;2024-02-26T00:02:39;4.60;99.90
11152;DHT22;5630;49.342;10.802;2024-02-26T00:05:06;4.60;99.90
11152;DHT22;5630;49.342;10.802;2024-02-26T00:07:32;4.60;99.90
11152;DHT22;5630;49.342;10.802;2024-02-26T00:09:58;4.50;99.90
11152;DHT22;5630;49.342;10.802;2024-02-26T00:12:24;4.50;99.90
11152;DHT22;5630;49.342;10.802;2024-02-26T00:14:49;4.50;99.90
11152;DHT22;5630;49.342;10.802;2024-02-26T00:17:15;4.50;99.90
11152;DHT22;5630;49.342;10.802;2024-02-26T00:19:41;4.50;99.90
11152;DHT22;5630;49.342;10.802;2024-02-26T00:22:07;4.50;99.90
11152;DHT22;5630;49.342;10.802;2024-02-26T00:24:32;4.50;99.90
11152;DHT22;5630;49.342;10.802;2024-02-26T00:26:59;4.50;99.90
11152;DHT22;5630;49.342;10.802;2024-02-26T00:29:24;4.50;99.90
11152;DHT22;5630;49.342;10.802;2024-02-26T00:31:51;4.50;99.90
11152;DHT22;5630;49.342;10.802;2024-02-26T00:34:16;4.40;99.90
11152;DHT22;5630;49.342;10.802;2024-02-26T00:36:42;4.40;99.90
11152;DHT22;5630;49.342;10.802;2024-02-26T00:39:08;4.40;99.90
11152;DHT22;5630;49.342;10.802;2024-02-26T00:41:37;4.40;99.90
11152;DHT22;5630;49.342;10.802;2024-02-26T00:44:03;4.30;99.90
11152;DHT22;5630;49.342;10.802;2024-02-26T00:46:28;4.30;99.90
11152;DHT22;5630;49.342;10.802;2024-02-26T00:48:54;4.30;99.90
11152;DHT22;5630;49.342;10.802;2024-02-26T00:51:19;4.30;99.90
11152;DHT22;5630;49.342;10.802;2024-02-26T00:53:45;4.20;99.90
11152;DHT22;5630;49.342;10.802;2024-02-26T00:56:11;4.20;99.90
11152;DHT22;5630;49.342;10.802;2024-02-26T00:58:36;4.20;99.90
11152;DHT22;5630;49.342;10.802;2024-02-26T01:01:02;4.10;99.90
11152;DHT22;5630;49.342;10.802;2024-02-26T01:03:28;4.10;99.90
11152;DHT22;5630;49.342;10.802;2024-02-26T01:05:54;4.10;99.90
11152;DHT22;5630;49.342;10.802;2024-02-26T01:08:19;4.10;99.90
11152;DHT22;5630;49.342;10.802;2024-02-26T01:10:45;4.10;99.90
11152;DHT22;5630;49.342;10.802;2024-02-26T01:13:11;4.00;99.90
11152;DHT22;5630;49.342;10.802;2024-02-26T01:15:36;4.00;99.90
11152;DHT22;5630;49.342;10.802;2024-02-26T01:18:02;4.00;99.90
11152;DHT22;5630;49.342;10.802;2024-02-26T01:20:28;4.00;99.90
11152;DHT22;5630;49.342;10.802;2024-02-26T01:22:53;4.00;99.90
11152;DHT22;5630;49.342;10.802;2024-02-26T01:25:19;3.90;99.90
11152;DHT22;5630;49.342;10.802;2024-02-26T01:27:45;3.90;99.90
11152;DHT22;5630;49.342;10.802;2024-02-26T01:30:11;3.90;99.90
11152;DHT22;5630;49.342;10.802;2024-02-26T01:32:37;4.00;99.90
11152;DHT22;5630;49.342;10.802;2024-02-26T01:35:02;4.10;99.90
11152;DHT22;5630;49.342;10.802;2024-02-26T01:37:36;4.00;99.90
11152;DHT22;5630;49.342;10.802;2024-02-26T01:40:02;4.10;99.90
11152;DHT22;5630;49.342;10.802;2024-02-26T01:42:32;4.10;99.90
11152;DHT22;5630;49.342;10.802;2024-02-26T01:44:58;4.10;99.90
11152;DHT22;5630;49.342;10.802;2024-02-26T01:47:24;4.10;99.90
11152;DHT22;5630;49.342;10.802;2024-02-26T01:49:50;4.20;99.90
11152;DHT22;5630;49.342;10.802;2024-02-26T01:52:16;4.20;99.90
11152;DHT22;5630;49.342;10.802;2024-02-26T01:54:42;4.20;99.90
11152;DHT22;5630;49.342;10.802;2024-02-26T01:57:10;4.20;99.90
11152;DHT22;5630;49.342;10.802;2024-02-26T01:59:36;4.20;99.90
11152;DHT22;5630;49.342;10.802;2024-02-26T02:02:05;4.20;99.90
11152;DHT22;5630;49.342;10.802;2024-02-26T02:04:32;4.20;99.90
11152;DHT22;5630;49.342;10.802;2024-02-26T02:07:00;4.30;99.90
11152;DHT22;5630;49.342;10.802;2024-02-26T02:09:27;4.30;99.90
11152;DHT22;5630;49.342;10.802;2024-02-26T02:11:52;4.30;99.90
11152;DHT22;5630;49.342;10.802;2024-02-26T02:14:18;4.30;99.90
11152;DHT22;5630;49.342;10.802;2024-02-26T02:16:44;4.40;99.90
11152;DHT22;5630;49.342;10.802;2024-02-26T02:19:09;4.30;99.90
11152;DHT22;5630;49.342;10.802;2024-02-26T02:21:35;4.30;99.90
11152;DHT22;5630;49.342;10.802;2024-02-26T02:24:00;4.40;99.90
11152;DHT22;5630;49.342;10.802;2024-02-26T02:26:26;4.40;99.90
11152;DHT22;5630;49.342;10.802;2024-02-26T02:28:52;4.40;99.90
11152;DHT22;5630;49.342;10.802;2024-02-26T02:31:18;4.40;99.90
11152;DHT22;5630;49.342;10.802;2024-02-26T02:33:44;4.40;99.90
11152;DHT22;5630;49.342;10.802;2024-02-26T02:36:10;4.40;99.90
11152;DHT22;5630;49.342;10.802;2024-02-26T02:38:37;4.40;99.90
11152;DHT22;5630;49.342;10.802;2024-02-26T02:41:03;4.40;99.90
11152;DHT22;5630;49.342;10.802;2024-02-26T02:43:29;4.40;99.90
11152;DHT22;5630;49.342;10.802;2024-02-26T02:45:54;4.40;99.90
11152;DHT22;5630;49.342;10.802;2024-02-26T02:48:20;4.40;99.90
11152;DHT22;5630;49.342;10.802;2024-02-26T02:50:45;4.40;99.90
11152;DHT22;5630;49.342;10.802;2024-02-26T02:53:11;4.50;99.90
11152;DHT22;5630;49.342;10.802;2024-02-26T02:55:37;4.50;99.90
11152;DHT22;5630;49.342;10.802;2024-02-26T02:58:02;4.40;99.90
11152;DHT22;5630;49.342;10.802;2024-02-26T03:00:28;4.40;99.90
11152;DHT22;5630;49.342;10.802;2024-02-26T03:02:53;4.40;99.90
11152;DHT22;5630;49.342;10.802;2024-02-26T03:05:19;4.40;99.90
11152;DHT22;5630;49.342;10.802;2024-02-26T03:07:44;4.40;99.90
11152;DHT22;5630;49.342;10.802;2024-02-26T03:10:10;4.40;99.90
11152;DHT22;5630;49.342;10.802;2024-02-26T03:12:36;4.50;99.90
11152;DHT22;5630;49.342;10.802;2024-02-26T03:15:01;4.40;99.90
11152;DHT22;5630;49.342;10.802;2024-02-26T03:17:30;4.40;99.90
11152;DHT22;5630;49.342;10.802;2024-02-26T03:19:56;4.40;99.90
11152;DHT22;5630;49.342;10.802;2024-02-26T03:22:22;4.40;99.90
11152;DHT22;5630;49.342;10.802;2024-02-26T03:24:47;4.40;99.90
11152;DHT22;5630;49.342;10.802;2024-02-26T03:27:13;4.50;99.90
11152;DHT22;5630;49.342;10.802;2024-02-26T03:29:39;4.50;99.90
11152;DHT22;5630;49.342;10.802;2024-02-26T03:32:06;4.50;99.90
11152;DHT22;5630;49.342;10.802;2024-02-26T03:34:32;4.50;99.90
11152;DHT22;5630;49.342;10.802;2024-02-26T03:37:00;4.50;99.90
11152;DHT22;5630;49.342;10.802;2024-02-26T03:39:25;4.50;99.90
11152;DHT22;5630;49.342;10.802;2024-02-26T03:41:51;4.50;99.90
11152;DHT22;5630;49.342;10.802;2024-02-26T03:44:16;4.50;99.90
11152;DHT22;5630;49.342;10.802;2024-02-26T03:46:42;4.60;99.90
11152;DHT22;5630;49.342;10.802;2024-02-26T03:49:08;4.60;99.90
11152;DHT22;5630;49.342;10.802;2024-02-26T03:51:34;4.50;99.90
11152;DHT22;5630;49.342;10.802;2024-02-26T03:54:00;4.50;99.90
11152;DHT22;5630;49.342;10.802;2024-02-26T03:56:26;4.50;99.90
11152;DHT22;5630;49.342;10.802;2024-02-26T03:58:52;4.50;99.90
11152;DHT22;5630;49.342;10.802;2024-02-26T04:01:18;4.50;99.90
11152;DHT22;5630;49.342;10.802;2024-02-26T04:03:43;4.50;99.90
11152;DHT22;5630;49.342;10.802;2024-02-26T04:06:09;4.50;99.90
11152;DHT22;5630;49.342;10.802;2024-02-26T04:08:36;4.50;99.90
11152;DHT22;5630;49.342;10.802;2024-02-26T04:11:02;4.50;99.90
11152;DHT22;5630;49.342;10.802;2024-02-26T04:13:32;4.50;99.90
11152;DHT22;5630;49.342;10.802;2024-02-26T04:15:58;4.50;99.90
11152;DHT22;5630;49.342;10.802;2024-02-26T04:18:23;4.50;99.90
11152;DHT22;5630;49.342;10.802;2024-02-26T04:20:49;4.60;99.90
11152;DHT22;5630;49.342;10.802;2024-02-26T04:23:16;4.60;99.90
11152;DHT22;5630;49.342;10.802;2024-02-26T04:25:42;4.60;99.90
11152;DHT22;5630;49.342;10.802;2024-02-26T04:28:07;4.60;99.90
11152;DHT22;5630;49.342;10.802;2024-02-26T04:30:33;4.50;99.90
11152;DHT22;5630;49.342;10.802;2024-02-26T04:32:59;4.50;99.90
11152;DHT22;5630;49.342;10.802;2024-02-26T04:35:24;4.50;99.90
11152;DHT22;5630;49.342;10.802;2024-02-26T04:37:50;4.50;99.90
11152;DHT22;5630;49.342;10.802;2024-02-26T04:40:15;4.50;99.90
11152;DHT22;5630;49.342;10.802;2024-02-26T04:42:41;4.50;99.90
11152;DHT22;5630;49.342;10.802;2024-02-26T04:45:06;4.50;99.90
11152;DHT22;5630;49.342;10.802;2024-02-26T04:47:33;4.50;99.90
11152;DHT22;5630;49.342;10.802;2024-02-26T04:49:59;4.60;99.90
11152;DHT22;5630;49.342;10.802;2024-02-26T04:52:25;4.60;99.90
11152;DHT22;5630;49.342;10.802;2024-02-26T04:54:51;4.60;99.90
11152;DHT22;5630;49.342;10.802;2024-02-26T04:57:17;4.60;99.90
11152;DHT22;5630;49.342;10.802;2024-02-26T04:59:44;4.60;99.90
11152;DHT22;5630;49.342;10.802;2024-02-26T05:02:11;4.60;99.90
11152;DHT22;5630;49.342;10.802;2024-02-26T05:04:37;4.50;99.90
11152;DHT22;5630;49.342;10.802;2024-02-26T05:07:02;4.60;99.90
11152;DHT22;5630;49.342;10.802;2024-02-26T05:09:29;4.60;99.90
11152;DHT22;5630;49.342;10.802;2024-02-26T05:11:54;4.50;99.90
11152;DHT22;5630;49.342;10.802;2024-02-26T05:14:20;4.40;99.90
11152;DHT22;5630;49.342;10.802;2024-02-26T05:16:45;4.50;99.90
11152;DHT22;5630;49.342;10.802;2024-02-26T05:19:11;4.50;99.90
11152;DHT22;5630;49.342;10.802;2024-02-26T05:21:37;4.40;99.90
11152;DHT22;5630;49.342;10.802;2024-02-26T05:24:02;4.50;99.90
11152;DHT22;5630;49.342;10.802;2024-02-26T05:26:28;4.50;99.90
11152;DHT22;5630;49.342;10.802;2024-02-26T05:28:54;4.50;99.90
11152;DHT22;5630;49.342;10.802;2024-02-26T05:31:25;4.50;99.90
11152;DHT22;5630;49.342;10.802;2024-02-26T05:33:50;4.50;99.90
11152;DHT22;5630;49.342;10.802;2024-02-26T05:36:22;4.50;99.90
11152;DHT22;5630;49.342;10.802;2024-02-26T05:38:48;4.50;99.90
11152;DHT22;5630;49.342;10.802;2024-02-26T05:41:15;4.40;99.90
11152;DHT22;5630;49.342;10.802;2024-02-26T05:43:41;4.40;99.90
11152;DHT22;5630;49.342;10.802;2024-02-26T05:46:07;4.40;99.90
11152;DHT22;5630;49.342;10.802;2024-02-26T05:48:33;4.40;99.90
11152;DHT22;5630;49.342;10.802;2024-02-26T05:50:58;4.40;99.90
11152;DHT22;5630;49.342;10.802;2024-02-26T05:53:24;4.40;99.90
11152;DHT22;5630;49.342;10.802;2024-02-26T05:55:49;4.40;99.90
11152;DHT22;5630;49.342;10.802;2024-02-26T05:58:15;4.40;99.90
11152;DHT22;5630;49.342;10.802;2024-02-26T06:00:40;4.40;99.90
11152;DHT22;5630;49.342;10.802;2024-02-26T06:03:06;4.40;99.90
11152;DHT22;5630;49.342;10.802;2024-02-26T06:05:32;4.40;99.90
11152;DHT22;5630;49.342;10.802;2024-02-26T06:07:57;4.40;99.90
11152;DHT22;5630;49.342;10.802;2024-02-26T06:10:23;4.50;99.90
11152;DHT22;5630;49.342;10.802;2024-02-26T06:12:48;4.50;99.90
11152;DHT22;5630;49.342;10.802;2024-02-26T06:15:14;4.50;99.90
11152;DHT22;5630;49.342;10.802;2024-02-26T06:17:39;4.60;99.90
11152;DHT22;5630;49.342;10.802;2024-02-26T06:20:06;4.60;99.90
11152;DHT22;5630;49.342;10.802;2024-02-26T06:22:32;4.60;99.90
11152;DHT22;5630;49.342;10.802;2024-02-26T06:24:57;4.70;99.90
11152;DHT22;5630;49.342;10.802;2024-02-26T06:27:23;4.70;99.90
11152;DHT22;5630;49.342;10.802;2024-02-26T06:29:49;4.70;99.90
11152;DHT22;5630;49.342;10.802;2024-02-26T06:32:15;4.70;99.90
11152;DHT22;5630;49.342;10.802;2024-02-26T06:34:40;4.70;99.90
11152;DHT22;5630;49.342;10.802;2024-02-26T06:37:07;4.70;99.90
11152;DHT22;5630;49.342;10.802;2024-02-26T06:39:33;4.70;99.90
11152;DHT22;5630;49.342;10.802;2024-02-26T06:41:59;4.70;99.90
11152;DHT22;5630;49.342;10.802;2024-02-26T06:44:28;5.00;99.90
11152;DHT22;5630;49.342;10.802;2024-02-26T06:46:59;4.90;99.90
11152;DHT22;5630;49.342;10.802;2024-02-26T06:49:25;4.90;99.90
11152;DHT22;5630;49.342;10.802;2024-02-26T06:51:51;4.90;99.90
11152;DHT22;5630;49.342;10.802;2024-02-26T06:54:17;4.80;99.90
11152;DHT22;5630;49.342;10.802;2024-02-26T06:56:42;4.90;99.90
11152;DHT22;5630;49.342;10.802;2024-02-26T06:59:08;5.00;99.90
11152;DHT22;5630;49.342;10.802;2024-02-26T07:01:34;5.00;99.90
11152;DHT22;5630;49.342;10.802;2024-02-26T07:03:59;5.00;99.90
11152;DHT22;5630;49.342;10.802;2024-02-26T07:06:26;5.10;99.90
11152;DHT22;5630;49.342;10.802;2024-02-26T07:08:52;5.40;99.90
11152;DHT22;5630;49.342;10.802;2024-02-26T07:11:18;5.40;99.90
11152;DHT22;5630;49.342;10.802;2024-02-26T07:13:48;5.40;99.90
11152;DHT22;5630;49.342;10.802;2024-02-26T07:16:15;6.20;99.90
11152;DHT22;5630;49.342;10.802;2024-02-26T07:18:41;7.70;99.90
11152;DHT22;5630;49.342;10.802;2024-02-26T07:21:06;8.60;99.90
11152;DHT22;5630;49.342;10.802;2024-02-26T07:23:32;9.20;99.90
11152;DHT22;5630;49.342;10.802;2024-02-26T07:25:58;9.70;99.90
11152;DHT22;5630;49.342;10.802;2024-02-26T07:28:24;9.70;99.90
11152;DHT22;5630;49.342;10.802;2024-02-26T07:30:50;9.90;99.90
11152;DHT22;5630;49.342;10.802;2024-02-26T07:33:15;10.40;99.90
11152;DHT22;5630;49.342;10.802;2024-02-26T07:35:41;10.20;99.90
11152;DHT22;5630;49.342;10.802;2024-02-26T07:38:07;9.70;99.90
11152;DHT22;5630;49.342;10.802;2024-02-26T07:40:32;9.20;99.90
11152;DHT22;5630;49.342;10.802;2024-02-26T07:42:58;8.30;99.90
11152;DHT22;5630;49.342;10.802;2024-02-26T07:45:23;8.00;99.90
11152;DHT22;5630;49.342;10.802;2024-02-26T07:47:49;7.70;99.90
11152;DHT22;5630;49.342;10.802;2024-02-26T07:50:16;7.90;99.90
11152;DHT22;5630;49.342;10.802;2024-02-26T07:52:42;8.10;99.90
11152;DHT22;5630;49.342;10.802;2024-02-26T07:55:07;7.90;99.90
11152;DHT22;5630;49.342;10.802;2024-02-26T07:57:33;7.80;99.90
11152;DHT22;5630;49.342;10.802;2024-02-26T07:59:59;7.50;99.90
11152;DHT22;5630;49.342;10.802;2024-02-26T08:02:25;7.50;99.90
11152;DHT22;5630;49.342;10.802;2024-02-26T08:04:51;7.40;99.90
11152;DHT22;5630;49.342;10.802;2024-02-26T08:07:16;7.30;99.90
11152;DHT22;5630;49.342;10.802;2024-02-26T08:09:42;7.10;99.90
11152;DHT22;5630;49.342;10.802;2024-02-26T08:12:08;6.90;99.90
11152;DHT22;5630;49.342;10.802;2024-02-26T08:14:33;6.70;99.90
11152;DHT22;5630;49.342;10.802;2024-02-26T08:16:59;6.70;99.90
11152;DHT22;5630;49.342;10.802;2024-02-26T08:19:25;6.70;99.90
11152;DHT22;5630;49.342;10.802;2024-02-26T08:21:51;7.30;99.90
11152;DHT22;5630;49.342;10.802;2024-02-26T08:24:17;7.30;99.90
11152;DHT22;5630;49.342;10.802;2024-02-26T08:26:42;7.40;99.90
11152;DHT22;5630;49.342;10.802;2024-02-26T08:29:08;7.30;99.90
11152;DHT22;5630;49.342;10.802;2024-02-26T08:31:33;7.30;99.90
11152;DHT22;5630;49.342;10.802;2024-02-26T08:34:03;7.40;99.90
11152;DHT22;5630;49.342;10.802;2024-02-26T08:36:28;7.30;99.90
11152;DHT22;5630;49.342;10.802;2024-02-26T08:38:54;7.20;99.90
11152;DHT22;5630;49.342;10.802;2024-02-26T08:41:19;7.10;99.90
11152;DHT22;5630;49.342;10.802;2024-02-26T08:43:45;7.20;99.90
11152;DHT22;5630;49.342;10.802;2024-02-26T08:46:12;7.20;99.90
11152;DHT22;5630;49.342;10.802;2024-02-26T08:48:39;7.10;99.90
11152;DHT22;5630;49.342;10.802;2024-02-26T08:51:06;7.20;99.90
11152;DHT22;5630;49.342;10.802;2024-02-26T08:53:32;7.10;99.90
11152;DHT22;5630;49.342;10.802;2024-02-26T08:55:57;7.20;99.90
11152;DHT22;5630;49.342;10.802;2024-02-26T08:58:23;7.10;99.90
11152;DHT22;5630;49.342;10.802;2024-02-26T09:00:48;7.10;99.90
11152;DHT22;5630;49.342;10.802;2024-02-26T09:03:14;7.10;99.90
11152;DHT22;5630;49.342;10.802;2024-02-26T09:05:39;7.10;99.90
11152;DHT22;5630;49.342;10.802;2024-02-26T09:08:05;7.10;99.90
11152;DHT22;5630;49.342;10.802;2024-02-26T09:10:31;7.10;99.90
11152;DHT22;5630;49.342;10.802;2024-02-26T09:12:58;7.20;99.90
11152;DHT22;5630;49.342;10.802;2024-02-26T09:15:23;7.20;99.90
11152;DHT22;5630;49.342;10.802;2024-02-26T09:17:49;7.30;99.90
11152;DHT22;5630;49.342;10.802;2024-02-26T09:20:15;7.40;99.90
11152;DHT22;5630;49.342;10.802;2024-02-26T09:22:48;7.60;99.90
11152;DHT22;5630;49.342;10.802;2024-02-26T09:25:14;7.70;99.90
11152;DHT22;5630;49.342;10.802;2024-02-26T09:27:44;7.80;99.90
11152;DHT22;5630;49.342;10.802;2024-02-26T09:30:12;7.80;99.90
11152;DHT22;5630;49.342;10.802;2024-02-26T09:32:39;7.70;99.90
11152;DHT22;5630;49.342;10.802;2024-02-26T09:35:07;7.80;99.90
11152;DHT22;5630;49.342;10.802;2024-02-26T09:37:33;7.90;99.90
11152;DHT22;5630;49.342;10.802;2024-02-26T09:42:26;8.60;99.90
11152;DHT22;5630;49.342;10.802;2024-02-26T09:44:54;9.30;99.90
11152;DHT22;5630;49.342;10.802;2024-02-26T09:47:22;9.50;99.90
11152;DHT22;5630;49.342;10.802;2024-02-26T09:49:49;9.50;99.90
11152;DHT22;5630;49.342;10.802;2024-02-26T09:52:16;9.40;99.90
11152;DHT22;5630;49.342;10.802;2024-02-26T09:54:42;9.30;99.90
11152;DHT22;5630;49.342;10.802;2024-02-26T09:57:13;9.20;99.90
11152;DHT22;5630;49.342;10.802;2024-02-26T09:59:42;9.20;99.90
11152;DHT22;5630;49.342;10.802;2024-02-26T10:02:14;9.20;99.90
11152;DHT22;5630;49.342;10.802;2024-02-26T10:04:41;9.30;99.90
11152;DHT22;5630;49.342;10.802;2024-02-26T10:07:11;9.20;99.90
11152;DHT22;5630;49.342;10.802;2024-02-26T10:09:37;9.40;99.90
11152;DHT22;5630;49.342;10.802;2024-02-26T10:12:03;9.60;99.90
11152;DHT22;5630;49.342;10.802;2024-02-26T10:14:30;9.70;99.90
11152;DHT22;5630;49.342;10.802;2024-02-26T10:16:56;9.90;99.90
11152;DHT22;5630;49.342;10.802;2024-02-26T10:19:25;10.00;99.90
11152;DHT22;5630;49.342;10.802;2024-02-26T10:21:57;10.20;99.90
11152;DHT22;5630;49.342;10.802;2024-02-26T10:24:24;10.70;99.90
11152;DHT22;5630;49.342;10.802;2024-02-26T10:26:52;10.70;99.90
11152;DHT22;5630;49.342;10.802;2024-02-26T10:29:20;10.60;99.90
11152;DHT22;5630;49.342;10.802;2024-02-26T10:31:45;10.40;99.90
11152;DHT22;5630;49.342;10.802;2024-02-26T10:34:12;10.40;99.90
11152;DHT22;5630;49.342;10.802;2024-02-26T10:36:38;10.30;99.90
11152;DHT22;5630;49.342;10.802;2024-02-26T10:39:06;10.20;99.90
11152;DHT22;5630;49.342;10.802;2024-02-26T10:41:33;10.20;99.90
11152;DHT22;5630;49.342;10.802;2024-02-26T10:43:59;10.10;99.90
11152;DHT22;5630;49.342;10.802;2024-02-26T10:46:26;10.10;99.90
11152;DHT22;5630;49.342;10.802;2024-02-26T10:48:52;10.10;99.90
11152;DHT22;5630;49.342;10.802;2024-02-26T10:51:28;10.10;99.90
11152;DHT22;5630;49.342;10.802;2024-02-26T10:53:58;10.20;99.90
11152;DHT22;5630;49.342;10.802;2024-02-26T10:56:30;10.30;99.90
11152;DHT22;5630;49.342;10.802;2024-02-26T10:58:57;10.40;99.90
11152;DHT22;5630;49.342;10.802;2024-02-26T11:01:24;10.60;99.90
11152;DHT22;5630;49.342;10.802;2024-02-26T11:03:51;10.70;99.90
11152;DHT22;5630;49.342;10.802;2024-02-26T11:06:21;10.90;99.90
11152;DHT22;5630;49.342;10.802;2024-02-26T11:08:51;11.10;99.90
11152;DHT22;5630;49.342;10.802;2024-02-26T11:11:20;11.30;99.90
11152;DHT22;5630;49.342;10.802;2024-02-26T11:13:48;11.40;99.90
11152;DHT22;5630;49.342;10.802;2024-02-26T11:16:18;11.60;99.90
11152;DHT22;5630;49.342;10.802;2024-02-26T11:18:43;11.60;99.90
11152;DHT22;5630;49.342;10.802;2024-02-26T11:21:15;11.60;99.90
11152;DHT22;5630;49.342;10.802;2024-02-26T11:23:41;11.60;99.90
11152;DHT22;5630;49.342;10.802;2024-02-26T11:26:07;11.70;99.90
11152;DHT22;5630;49.342;10.802;2024-02-26T11:28:34;11.80;99.90
11152;DHT22;5630;49.342;10.802;2024-02-26T11:31:02;12.30;99.90
11152;DHT22;5630;49.342;10.802;2024-02-26T11:33:29;12.50;99.90
11152;DHT22;5630;49.342;10.802;2024-02-26T11:35:55;12.90;99.90
11152;DHT22;5630;49.342;10.802;2024-02-26T11:38:23;13.30;99.90
11152;DHT22;5630;49.342;10.802;2024-02-26T11:40:50;13.40;99.90
11152;DHT22;5630;49.342;10.802;2024-02-26T11:43:16;13.60;99.90
11152;DHT22;5630;49.342;10.802;2024-02-26T11:48:15;13.70;99.90
11152;DHT22;5630;49.342;10.802;2024-02-26T11:50:42;13.90;99.90
11152;DHT22;5630;49.342;10.802;2024-02-26T11:53:29;14.00;99.90
11152;DHT22;5630;49.342;10.802;2024-02-26T11:59:04;14.10;99.90
11152;DHT22;5630;49.342;10.802;2024-02-26T12:04:14;14.30;99.90
11152;DHT22;5630;49.342;10.802;2024-02-26T12:06:45;14.30;99.90
11152;DHT22;5630;49.342;10.802;2024-02-26T12:09:11;14.20;99.90
11152;DHT22;5630;49.342;10.802;2024-02-26T12:11:39;14.20;99.90
11152;DHT22;5630;49.342;10.802;2024-02-26T12:14:07;14.30;99.90
11152;DHT22;5630;49.342;10.802;2024-02-26T12:16:40;14.30;99.90
11152;DHT22;5630;49.342;10.802;2024-02-26T12:19:09;14.30;99.90
11152;DHT22;5630;49.342;10.802;2024-02-26T12:21:36;14.30;99.90
11152;DHT22;5630;49.342;10.802;2024-02-26T12:24:11;14.30;99.90
11152;DHT22;5630;49.342;10.802;2024-02-26T12:26:38;14.40;99.90
11152;DHT22;5630;49.342;10.802;2024-02-26T12:29:04;14.50;99.90
11152;DHT22;5630;49.342;10.802;2024-02-26T12:31:30;14.50;99.90
11152;DHT22;5630;49.342;10.802;2024-02-26T12:33:56;14.80;99.90
11152;DHT22;5630;49.342;10.802;2024-02-26T12:36:22;14.80;99.90
11152;DHT22;5630;49.342;10.802;2024-02-26T12:38:52;14.90;99.90
11152;DHT22;5630;49.342;10.802;2024-02-26T12:41:18;15.00;99.90
11152;DHT22;5630;49.342;10.802;2024-02-26T12:43:43;15.20;99.90
11152;DHT22;5630;49.342;10.802;2024-02-26T12:46:10;15.30;99.90
11152;DHT22;5630;49.342;10.802;2024-02-26T12:48:36;15.10;99.90
11152;DHT22;5630;49.342;10.802;2024-02-26T12:51:02;15.20;99.90
11152;DHT22;5630;49.342;10.802;2024-02-26T12:53:28;15.20;99.90
11152;DHT22;5630;49.342;10.802;2024-02-26T12:55:56;15.20;99.90
11152;DHT22;5630;49.342;10.802;2024-02-26T12:58:22;15.40;99.90
11152;DHT22;5630;49.342;10.802;2024-02-26T13:00:54;15.50;99.90
11152;DHT22;5630;49.342;10.802;2024-02-26T13:05:46;15.80;99.90
11152;DHT22;5630;49.342;10.802;2024-02-26T13:08:19;16.00;99.90
11152;DHT22;5630;49.342;10.802;2024-02-26T13:10:48;16.00;99.90
11152;DHT22;5630;49.342;10.802;2024-02-26T13:13:16;16.00;99.90
11152;DHT22;5630;49.342;10.802;2024-02-26T13:15:45;16.10;99.90
11152;DHT22;5630;49.342;10.802;2024-02-26T13:18:13;16.10;99.90
11152;DHT22;5630;49.342;10.802;2024-02-26T13:20:39;15.90;99.90
11152;DHT22;5630;49.342;10.802;2024-02-26T13:23:10;15.90;99.90
11152;DHT22;5630;49.342;10.802;2024-02-26T13:25:36;15.60;99.90
11152;DHT22;5630;49.342;10.802;2024-02-26T13:28:09;15.60;99.90
11152;DHT22;5630;49.342;10.802;2024-02-26T13:30:35;15.50;99.90
11152;DHT22;5630;49.342;10.802;2024-02-26T13:33:08;15.30;99.90
11152;DHT22;5630;49.342;10.802;2024-02-26T13:35:34;15.10;99.90
11152;DHT22;5630;49.342;10.802;2024-02-26T13:38:00;14.90;99.90
11152;DHT22;5630;49.342;10.802;2024-02-26T13:40:26;14.60;99.90
11152;DHT22;5630;49.342;10.802;2024-02-26T13:42:51;14.50;99.90
11152;DHT22;5630;49.342;10.802;2024-02-26T13:45:18;14.40;99.90
11152;DHT22;5630;49.342;10.802;2024-02-26T13:47:43;14.30;99.90
11152;DHT22;5630;49.342;10.802;2024-02-26T13:50:09;14.20;99.90
11152;DHT22;5630;49.342;10.802;2024-02-26T13:52:35;14.20;99.90
11152;DHT22;5630;49.342;10.802;2024-02-26T13:55:01;14.10;99.90
11152;DHT22;5630;49.342;10.802;2024-02-26T13:57:27;14.00;99.90
11152;DHT22;5630;49.342;10.802;2024-02-26T13:59:54;13.90;99.90
11152;DHT22;5630;49.342;10.802;2024-02-26T14:02:20;13.80;99.90
11152;DHT22;5630;49.342;10.802;2024-02-26T14:04:46;13.70;99.90
11152;DHT22;5630;49.342;10.802;2024-02-26T14:07:12;13.70;99.90
11152;DHT22;5630;49.342;10.802;2024-02-26T14:09:38;13.60;99.90
11152;DHT22;5630;49.342;10.802;2024-02-26T14:12:04;13.60;99.90
11152;DHT22;5630;49.342;10.802;2024-02-26T14:14:30;13.50;99.90
11152;DHT22;5630;49.342;10.802;2024-02-26T14:16:58;13.40;99.90
11152;DHT22;5630;49.342;10.802;2024-02-26T14:19:24;13.40;99.90
11152;DHT22;5630;49.342;10.802;2024-02-26T14:21:49;13.40;99.90
11152;DHT22;5630;49.342;10.802;2024-02-26T14:24:15;13.30;99.90
11152;DHT22;5630;49.342;10.802;2024-02-26T14:26:41;13.20;99.90
11152;DHT22;5630;49.342;10.802;2024-02-26T14:29:07;13.20;99.90
11152;DHT22;5630;49.342;10.802;2024-02-26T14:31:33;13.20;99.90
11152;DHT22;5630;49.342;10.802;2024-02-26T14:33:58;13.20;99.90
11152;DHT22;5630;49.342;10.802;2024-02-26T14:36:24;13.20;99.90
11152;DHT22;5630;49.342;10.802;2024-02-26T14:38:51;13.10;99.90
11152;DHT22;5630;49.342;10.802;2024-02-26T14:41:16;13.10;99.90
11152;DHT22;5630;49.342;10.802;2024-02-26T14:43:42;13.10;99.90
11152;DHT22;5630;49.342;10.802;2024-02-26T14:46:08;13.00;99.90
11152;DHT22;5630;49.342;10.802;2024-02-26T14:48:33;13.00;99.90
11152;DHT22;5630;49.342;10.802;2024-02-26T14:50:59;13.00;99.90
11152;DHT22;5630;49.342;10.802;2024-02-26T14:53:25;12.90;99.90
11152;DHT22;5630;49.342;10.802;2024-02-26T14:55:51;12.90;99.90
11152;DHT22;5630;49.342;10.802;2024-02-26T14:58:17;12.80;99.90
11152;DHT22;5630;49.342;10.802;2024-02-26T15:00:43;12.80;99.90
11152;DHT22;5630;49.342;10.802;2024-02-26T15:03:08;12.80;99.90
11152;DHT22;5630;49.342;10.802;2024-02-26T15:05:34;12.80;99.90
11152;DHT22;5630;49.342;10.802;2024-02-26T15:08:00;12.80;99.90
11152;DHT22;5630;49.342;10.802;2024-02-26T15:10:25;12.70;99.90
11152;DHT22;5630;49.342;10.802;2024-02-26T15:12:52;12.60;99.90
11152;DHT22;5630;49.342;10.802;2024-02-26T15:15:21;12.60;99.90
11152;DHT22;5630;49.342;10.802;2024-02-26T15:17:47;12.60;99.90
11152;DHT22;5630;49.342;10.802;2024-02-26T15:20:15;12.60;99.90
11152;DHT22;5630;49.342;10.802;2024-02-26T15:22:40;12.50;99.90
11152;DHT22;5630;49.342;10.802;2024-02-26T15:25:07;12.40;99.90
11152;DHT22;5630;49.342;10.802;2024-02-26T15:27:33;12.40;99.90
11152;DHT22;5630;49.342;10.802;2024-02-26T15:29:59;12.40;99.90
11152;DHT22;5630;49.342;10.802;2024-02-26T15:32:25;12.30;99.90
11152;DHT22;5630;49.342;10.802;2024-02-26T15:34:53;12.30;99.90
11152;DHT22;5630;49.342;10.802;2024-02-26T15:37:18;12.20;99.90
11152;DHT22;5630;49.342;10.802;2024-02-26T15:39:44;12.20;99.90
11152;DHT22;5630;49.342;10.802;2024-02-26T15:42:10;12.10;99.90
11152;DHT22;5630;49.342;10.802;2024-02-26T15:44:37;12.10;99.90
11152;DHT22;5630;49.342;10.802;2024-02-26T15:47:03;12.00;99.90